sensor_id;sensor_type;location;lat;lon;timestamp;P1;durP1;ratioP1;P2;durP2;ratioP2
16153;SDS011;8182;55.648;13.208;2023-12-20T00:00:39;10.40;;;3.03;;
16153;SDS011;8182;55.648;13.208;2023-12-20T00:03:06;13.33;;;3.13;;
16153;SDS011;8182;55.648;13.208;2023-12-20T00:05:38;14.47;;;3.13;;
16153;SDS011;8182;55.648;13.208;2023-12-20T00:08:06;13.83;;;3.20;;
16153;SDS011;8182;55.648;13.208;2023-12-20T00:10:33;11.27;;;4.30;;
16153;SDS011;8182;55.648;13.208;2023-12-20T00:13:00;7.13;;;2.60;;
16153;SDS011;8182;55.648;13.208;2023-12-20T00:15:29;10.10;;;3.43;;
16153;SDS011;8182;55.648;13.208;2023-12-20T00:17:57;11.33;;;3.00;;
16153;SDS011;8182;55.648;13.208;2023-12-20T00:20:24;11.17;;;2.97;;
16153;SDS011;8182;55.648;13.208;2023-12-20T00:22:51;8.43;;;2.93;;
16153;SDS011;8182;55.648;13.208;2023-12-20T00:25:18;11.57;;;3.00;;
16153;SDS011;8182;55.648;13.208;2023-12-20T00:27:46;10.53;;;3.13;;
16153;SDS011;8182;55.648;13.208;2023-12-20T00:30:13;13.57;;;3.00;;
16153;SDS011;8182;55.648;13.208;2023-12-20T00:32:42;9.97;;;3.20;;
16153;SDS011;8182;55.648;13.208;2023-12-20T00:35:11;12.40;;;3.10;;
16153;SDS011;8182;55.648;13.208;2023-12-20T00:37:38;9.77;;;3.00;;
16153;SDS011;8182;55.648;13.208;2023-12-20T00:40:06;11.33;;;3.23;;
16153;SDS011;8182;55.648;13.208;2023-12-20T00:42:35;7.90;;;2.87;;
16153;SDS011;8182;55.648;13.208;2023-12-20T00:45:03;10.87;;;2.70;;
16153;SDS011;8182;55.648;13.208;2023-12-20T00:47:31;9.33;;;3.10;;
16153;SDS011;8182;55.648;13.208;2023-12-20T00:50:04;11.77;;;3.07;;
16153;SDS011;8182;55.648;13.208;2023-12-20T00:52:32;9.47;;;2.90;;
16153;SDS011;8182;55.648;13.208;2023-12-20T00:55:00;8.00;;;2.87;;
16153;SDS011;8182;55.648;13.208;2023-12-20T00:57:29;13.87;;;3.17;;
16153;SDS011;8182;55.648;13.208;2023-12-20T00:59:56;12.03;;;3.23;;
16153;SDS011;8182;55.648;13.208;2023-12-20T01:02:24;8.47;;;3.00;;
16153;SDS011;8182;55.648;13.208;2023-12-20T01:04:51;11.13;;;2.73;;
16153;SDS011;8182;55.648;13.208;2023-12-20T01:07:20;15.23;;;3.30;;
16153;SDS011;8182;55.648;13.208;2023-12-20T01:09:48;10.53;;;3.30;;
16153;SDS011;8182;55.648;13.208;2023-12-20T01:12:15;11.30;;;2.90;;
16153;SDS011;8182;55.648;13.208;2023-12-20T01:14:43;11.17;;;3.10;;
16153;SDS011;8182;55.648;13.208;2023-12-20T01:17:13;11.13;;;2.57;;
16153;SDS011;8182;55.648;13.208;2023-12-20T01:19:40;8.17;;;2.90;;
16153;SDS011;8182;55.648;13.208;2023-12-20T01:22:08;13.03;;;3.07;;
16153;SDS011;8182;55.648;13.208;2023-12-20T01:24:38;12.37;;;3.07;;
16153;SDS011;8182;55.648;13.208;2023-12-20T01:27:08;9.27;;;3.30;;
16153;SDS011;8182;55.648;13.208;2023-12-20T01:29:35;8.47;;;2.93;;
16153;SDS011;8182;55.648;13.208;2023-12-20T01:32:02;14.40;;;3.10;;
16153;SDS011;8182;55.648;13.208;2023-12-20T01:34:29;14.47;;;3.27;;
16153;SDS011;8182;55.648;13.208;2023-12-20T01:36:57;14.70;;;2.93;;
16153;SDS011;8182;55.648;13.208;2023-12-20T01:39:25;12.10;;;4.10;;
16153;SDS011;8182;55.648;13.208;2023-12-20T01:41:54;11.30;;;2.63;;
16153;SDS011;8182;55.648;13.208;2023-12-20T01:44:22;12.43;;;2.53;;
16153;SDS011;8182;55.648;13.208;2023-12-20T01:46:48;10.33;;;2.80;;
16153;SDS011;8182;55.648;13.208;2023-12-20T01:49:16;10.93;;;2.27;;
16153;SDS011;8182;55.648;13.208;2023-12-20T01:51:47;8.33;;;2.73;;
16153;SDS011;8182;55.648;13.208;2023-12-20T01:54:14;14.70;;;2.40;;
16153;SDS011;8182;55.648;13.208;2023-12-20T01:56:42;9.73;;;2.60;;
16153;SDS011;8182;55.648;13.208;2023-12-20T01:59:11;9.20;;;2.53;;
16153;SDS011;8182;55.648;13.208;2023-12-20T02:01:38;11.83;;;2.40;;
16153;SDS011;8182;55.648;13.208;2023-12-20T02:04:08;11.43;;;2.63;;
16153;SDS011;8182;55.648;13.208;2023-12-20T02:06:36;8.80;;;2.30;;
16153;SDS011;8182;55.648;13.208;2023-12-20T02:09:06;11.63;;;2.80;;
16153;SDS011;8182;55.648;13.208;2023-12-20T02:11:34;8.97;;;2.23;;
16153;SDS011;8182;55.648;13.208;2023-12-20T02:14:03;16.73;;;2.40;;
16153;SDS011;8182;55.648;13.208;2023-12-20T02:16:31;6.60;;;2.47;;
16153;SDS011;8182;55.648;13.208;2023-12-20T02:18:59;10.13;;;2.57;;
16153;SDS011;8182;55.648;13.208;2023-12-20T02:21:33;8.73;;;2.60;;
16153;SDS011;8182;55.648;13.208;2023-12-20T02:24:01;9.70;;;2.40;;
16153;SDS011;8182;55.648;13.208;2023-12-20T02:26:31;10.13;;;2.17;;
16153;SDS011;8182;55.648;13.208;2023-12-20T02:29:00;8.80;;;2.47;;
16153;SDS011;8182;55.648;13.208;2023-12-20T02:31:29;10.17;;;2.30;;
16153;SDS011;8182;55.648;13.208;2023-12-20T02:33:57;11.70;;;2.50;;
16153;SDS011;8182;55.648;13.208;2023-12-20T02:36:24;11.50;;;2.13;;
16153;SDS011;8182;55.648;13.208;2023-12-20T02:38:53;10.03;;;2.50;;
16153;SDS011;8182;55.648;13.208;2023-12-20T02:41:20;7.93;;;2.70;;
16153;SDS011;8182;55.648;13.208;2023-12-20T02:43:47;10.30;;;2.20;;
16153;SDS011;8182;55.648;13.208;2023-12-20T02:46:14;5.60;;;2.20;;
16153;SDS011;8182;55.648;13.208;2023-12-20T02:48:44;13.30;;;3.30;;
16153;SDS011;8182;55.648;13.208;2023-12-20T02:51:12;10.23;;;2.47;;
16153;SDS011;8182;55.648;13.208;2023-12-20T02:53:40;11.50;;;2.60;;
16153;SDS011;8182;55.648;13.208;2023-12-20T02:56:09;15.07;;;3.27;;
16153;SDS011;8182;55.648;13.208;2023-12-20T02:58:36;9.77;;;2.67;;
16153;SDS011;8182;55.648;13.208;2023-12-20T03:01:04;10.77;;;2.90;;
16153;SDS011;8182;55.648;13.208;2023-12-20T03:03:31;9.47;;;2.30;;
16153;SDS011;8182;55.648;13.208;2023-12-20T03:05:58;8.50;;;2.23;;
16153;SDS011;8182;55.648;13.208;2023-12-20T03:08:26;12.40;;;3.00;;
16153;SDS011;8182;55.648;13.208;2023-12-20T03:10:53;13.40;;;3.03;;
16153;SDS011;8182;55.648;13.208;2023-12-20T03:13:22;12.10;;;2.40;;
16153;SDS011;8182;55.648;13.208;2023-12-20T03:15:50;14.37;;;2.70;;
16153;SDS011;8182;55.648;13.208;2023-12-20T03:18:18;13.53;;;2.63;;
16153;SDS011;8182;55.648;13.208;2023-12-20T03:20:45;9.90;;;2.73;;
16153;SDS011;8182;55.648;13.208;2023-12-20T03:23:15;11.77;;;2.40;;
16153;SDS011;8182;55.648;13.208;2023-12-20T03:25:45;12.87;;;2.57;;
16153;SDS011;8182;55.648;13.208;2023-12-20T03:28:14;12.87;;;2.37;;
16153;SDS011;8182;55.648;13.208;2023-12-20T03:30:43;8.23;;;2.20;;
16153;SDS011;8182;55.648;13.208;2023-12-20T03:33:10;8.83;;;2.20;;
16153;SDS011;8182;55.648;13.208;2023-12-20T03:35:40;12.60;;;2.57;;
16153;SDS011;8182;55.648;13.208;2023-12-20T03:38:07;11.90;;;3.23;;
16153;SDS011;8182;55.648;13.208;2023-12-20T03:40:34;13.20;;;2.17;;
16153;SDS011;8182;55.648;13.208;2023-12-20T03:43:02;17.03;;;2.40;;
16153;SDS011;8182;55.648;13.208;2023-12-20T03:45:30;11.30;;;2.50;;
16153;SDS011;8182;55.648;13.208;2023-12-20T03:47:59;13.93;;;2.13;;
16153;SDS011;8182;55.648;13.208;2023-12-20T03:50:26;13.30;;;2.43;;
16153;SDS011;8182;55.648;13.208;2023-12-20T03:52:53;13.57;;;2.50;;
16153;SDS011;8182;55.648;13.208;2023-12-20T03:55:21;13.70;;;2.67;;
16153;SDS011;8182;55.648;13.208;2023-12-20T03:57:48;9.63;;;2.27;;
16153;SDS011;8182;55.648;13.208;2023-12-20T04:00:16;9.77;;;2.17;;
16153;SDS011;8182;55.648;13.208;2023-12-20T04:02:44;13.23;;;2.70;;
16153;SDS011;8182;55.648;13.208;2023-12-20T04:05:14;12.03;;;2.23;;
16153;SDS011;8182;55.648;13.208;2023-12-20T04:07:41;11.70;;;2.43;;
16153;SDS011;8182;55.648;13.208;2023-12-20T04:10:09;8.77;;;2.23;;
16153;SDS011;8182;55.648;13.208;2023-12-20T04:12:36;11.57;;;2.30;;
16153;SDS011;8182;55.648;13.208;2023-12-20T04:15:04;16.63;;;2.90;;
16153;SDS011;8182;55.648;13.208;2023-12-20T04:17:34;10.27;;;2.37;;
16153;SDS011;8182;55.648;13.208;2023-12-20T04:20:02;10.67;;;2.03;;
16153;SDS011;8182;55.648;13.208;2023-12-20T04:22:31;9.87;;;2.50;;
16153;SDS011;8182;55.648;13.208;2023-12-20T04:24:59;12.77;;;2.63;;
16153;SDS011;8182;55.648;13.208;2023-12-20T04:27:26;11.50;;;2.37;;
16153;SDS011;8182;55.648;13.208;2023-12-20T04:29:53;10.93;;;2.20;;
16153;SDS011;8182;55.648;13.208;2023-12-20T04:32:24;11.47;;;2.83;;
16153;SDS011;8182;55.648;13.208;2023-12-20T04:34:51;12.67;;;2.60;;
16153;SDS011;8182;55.648;13.208;2023-12-20T04:37:19;14.00;;;2.87;;
16153;SDS011;8182;55.648;13.208;2023-12-20T04:39:48;14.27;;;2.80;;
16153;SDS011;8182;55.648;13.208;2023-12-20T04:42:15;10.50;;;2.87;;
16153;SDS011;8182;55.648;13.208;2023-12-20T04:44:42;14.20;;;2.50;;
16153;SDS011;8182;55.648;13.208;2023-12-20T04:47:10;9.30;;;2.80;;
16153;SDS011;8182;55.648;13.208;2023-12-20T04:49:37;15.87;;;2.30;;
16153;SDS011;8182;55.648;13.208;2023-12-20T04:52:05;12.77;;;2.63;;
16153;SDS011;8182;55.648;13.208;2023-12-20T04:54:33;13.53;;;2.37;;
16153;SDS011;8182;55.648;13.208;2023-12-20T04:57:02;17.33;;;3.47;;
16153;SDS011;8182;55.648;13.208;2023-12-20T04:59:29;16.00;;;2.80;;
16153;SDS011;8182;55.648;13.208;2023-12-20T05:01:56;12.80;;;3.20;;
16153;SDS011;8182;55.648;13.208;2023-12-20T05:04:24;13.50;;;2.90;;
16153;SDS011;8182;55.648;13.208;2023-12-20T05:06:51;13.23;;;2.80;;
16153;SDS011;8182;55.648;13.208;2023-12-20T05:09:19;11.90;;;2.53;;
16153;SDS011;8182;55.648;13.208;2023-12-20T05:11:49;14.60;;;3.13;;
16153;SDS011;8182;55.648;13.208;2023-12-20T05:14:18;14.33;;;2.70;;
16153;SDS011;8182;55.648;13.208;2023-12-20T05:16:45;12.80;;;2.57;;
16153;SDS011;8182;55.648;13.208;2023-12-20T05:19:12;12.73;;;2.70;;
16153;SDS011;8182;55.648;13.208;2023-12-20T05:21:39;11.20;;;2.73;;
16153;SDS011;8182;55.648;13.208;2023-12-20T05:24:07;13.77;;;2.30;;
16153;SDS011;8182;55.648;13.208;2023-12-20T05:26:35;17.87;;;2.90;;
16153;SDS011;8182;55.648;13.208;2023-12-20T05:29:03;12.60;;;2.67;;
16153;SDS011;8182;55.648;13.208;2023-12-20T05:31:36;12.50;;;2.67;;
16153;SDS011;8182;55.648;13.208;2023-12-20T05:34:05;15.63;;;3.70;;
16153;SDS011;8182;55.648;13.208;2023-12-20T05:36:32;12.80;;;3.10;;
16153;SDS011;8182;55.648;13.208;2023-12-20T05:39:00;12.87;;;2.60;;
16153;SDS011;8182;55.648;13.208;2023-12-20T05:41:28;10.83;;;2.67;;
16153;SDS011;8182;55.648;13.208;2023-12-20T05:43:56;18.03;;;3.33;;
16153;SDS011;8182;55.648;13.208;2023-12-20T05:46:24;14.27;;;3.00;;
16153;SDS011;8182;55.648;13.208;2023-12-20T05:48:54;16.07;;;3.33;;
16153;SDS011;8182;55.648;13.208;2023-12-20T05:51:21;17.00;;;2.87;;
16153;SDS011;8182;55.648;13.208;2023-12-20T05:53:48;15.60;;;3.00;;
16153;SDS011;8182;55.648;13.208;2023-12-20T05:56:16;13.27;;;2.90;;
16153;SDS011;8182;55.648;13.208;2023-12-20T05:58:43;19.53;;;3.33;;
16153;SDS011;8182;55.648;13.208;2023-12-20T06:01:11;13.53;;;3.27;;
16153;SDS011;8182;55.648;13.208;2023-12-20T06:03:41;14.47;;;2.90;;
16153;SDS011;8182;55.648;13.208;2023-12-20T06:06:10;18.00;;;3.53;;
16153;SDS011;8182;55.648;13.208;2023-12-20T06:08:38;14.77;;;2.90;;
16153;SDS011;8182;55.648;13.208;2023-12-20T06:11:05;10.60;;;3.07;;
16153;SDS011;8182;55.648;13.208;2023-12-20T06:13:33;17.17;;;2.87;;
16153;SDS011;8182;55.648;13.208;2023-12-20T06:16:03;12.33;;;2.70;;
16153;SDS011;8182;55.648;13.208;2023-12-20T06:18:31;11.63;;;2.37;;
16153;SDS011;8182;55.648;13.208;2023-12-20T06:20:58;13.87;;;2.40;;
16153;SDS011;8182;55.648;13.208;2023-12-20T06:23:27;15.93;;;3.23;;
16153;SDS011;8182;55.648;13.208;2023-12-20T06:25:54;13.57;;;2.63;;
16153;SDS011;8182;55.648;13.208;2023-12-20T06:28:22;12.90;;;2.50;;
16153;SDS011;8182;55.648;13.208;2023-12-20T06:30:49;11.70;;;2.50;;
16153;SDS011;8182;55.648;13.208;2023-12-20T06:33:17;10.73;;;2.40;;
16153;SDS011;8182;55.648;13.208;2023-12-20T06:35:46;9.17;;;2.53;;
16153;SDS011;8182;55.648;13.208;2023-12-20T06:38:18;9.27;;;2.27;;
16153;SDS011;8182;55.648;13.208;2023-12-20T06:40:48;8.73;;;2.40;;
16153;SDS011;8182;55.648;13.208;2023-12-20T06:43:15;8.77;;;2.20;;
16153;SDS011;8182;55.648;13.208;2023-12-20T06:45:43;11.20;;;2.77;;
16153;SDS011;8182;55.648;13.208;2023-12-20T06:48:10;8.83;;;2.07;;
16153;SDS011;8182;55.648;13.208;2023-12-20T06:50:38;9.43;;;2.03;;
16153;SDS011;8182;55.648;13.208;2023-12-20T06:53:06;7.73;;;1.93;;
16153;SDS011;8182;55.648;13.208;2023-12-20T06:55:34;9.40;;;2.27;;
16153;SDS011;8182;55.648;13.208;2023-12-20T06:58:04;7.97;;;1.80;;
16153;SDS011;8182;55.648;13.208;2023-12-20T07:00:32;10.10;;;1.90;;
16153;SDS011;8182;55.648;13.208;2023-12-20T07:02:59;8.73;;;2.20;;
16153;SDS011;8182;55.648;13.208;2023-12-20T07:05:27;7.27;;;2.23;;
16153;SDS011;8182;55.648;13.208;2023-12-20T07:07:54;5.47;;;1.70;;
16153;SDS011;8182;55.648;13.208;2023-12-20T07:10:21;7.27;;;1.80;;
16153;SDS011;8182;55.648;13.208;2023-12-20T07:12:48;7.03;;;1.70;;
16153;SDS011;8182;55.648;13.208;2023-12-20T07:15:18;8.00;;;1.80;;
16153;SDS011;8182;55.648;13.208;2023-12-20T07:17:45;5.43;;;2.00;;
16153;SDS011;8182;55.648;13.208;2023-12-20T07:20:15;7.23;;;1.97;;
16153;SDS011;8182;55.648;13.208;2023-12-20T07:22:43;7.57;;;1.87;;
16153;SDS011;8182;55.648;13.208;2023-12-20T07:25:10;5.53;;;1.60;;
16153;SDS011;8182;55.648;13.208;2023-12-20T07:27:38;5.83;;;2.10;;
16153;SDS011;8182;55.648;13.208;2023-12-20T07:30:06;6.90;;;1.80;;
16153;SDS011;8182;55.648;13.208;2023-12-20T07:32:39;4.73;;;1.53;;
16153;SDS011;8182;55.648;13.208;2023-12-20T07:35:06;4.00;;;1.77;;
16153;SDS011;8182;55.648;13.208;2023-12-20T07:37:34;4.97;;;1.70;;
16153;SDS011;8182;55.648;13.208;2023-12-20T07:40:01;6.20;;;1.67;;
16153;SDS011;8182;55.648;13.208;2023-12-20T07:42:29;6.33;;;2.13;;
16153;SDS011;8182;55.648;13.208;2023-12-20T07:44:56;8.67;;;1.83;;
16153;SDS011;8182;55.648;13.208;2023-12-20T07:47:23;6.17;;;1.93;;
16153;SDS011;8182;55.648;13.208;2023-12-20T07:49:52;7.82;;;2.42;;
16153;SDS011;8182;55.648;13.208;2023-12-20T07:52:20;10.10;;;2.10;;
16153;SDS011;8182;55.648;13.208;2023-12-20T07:54:51;5.53;;;1.97;;
16153;SDS011;8182;55.648;13.208;2023-12-20T07:57:18;8.03;;;1.97;;
16153;SDS011;8182;55.648;13.208;2023-12-20T07:59:45;10.77;;;2.30;;
16153;SDS011;8182;55.648;13.208;2023-12-20T08:02:13;7.90;;;2.30;;
16153;SDS011;8182;55.648;13.208;2023-12-20T08:04:41;4.70;;;1.70;;
16153;SDS011;8182;55.648;13.208;2023-12-20T08:07:10;6.63;;;2.33;;
16153;SDS011;8182;55.648;13.208;2023-12-20T08:09:37;7.17;;;2.03;;
16153;SDS011;8182;55.648;13.208;2023-12-20T08:12:05;7.90;;;2.10;;
16153;SDS011;8182;55.648;13.208;2023-12-20T08:14:32;9.13;;;2.00;;
16153;SDS011;8182;55.648;13.208;2023-12-20T08:17:00;6.90;;;2.00;;
16153;SDS011;8182;55.648;13.208;2023-12-20T08:19:27;4.43;;;2.13;;
16153;SDS011;8182;55.648;13.208;2023-12-20T08:21:55;7.27;;;1.77;;
16153;SDS011;8182;55.648;13.208;2023-12-20T08:24:24;5.40;;;1.80;;
16153;SDS011;8182;55.648;13.208;2023-12-20T08:26:51;7.10;;;1.83;;
16153;SDS011;8182;55.648;13.208;2023-12-20T08:29:18;8.40;;;1.73;;
16153;SDS011;8182;55.648;13.208;2023-12-20T08:31:46;5.73;;;1.87;;
16153;SDS011;8182;55.648;13.208;2023-12-20T08:34:17;6.53;;;1.80;;
16153;SDS011;8182;55.648;13.208;2023-12-20T08:36:45;3.77;;;1.50;;
16153;SDS011;8182;55.648;13.208;2023-12-20T08:39:12;3.67;;;1.50;;
16153;SDS011;8182;55.648;13.208;2023-12-20T08:41:40;4.37;;;1.50;;
16153;SDS011;8182;55.648;13.208;2023-12-20T08:44:08;3.60;;;1.30;;
16153;SDS011;8182;55.648;13.208;2023-12-20T08:46:35;3.87;;;1.57;;
16153;SDS011;8182;55.648;13.208;2023-12-20T08:49:02;4.83;;;1.70;;
16153;SDS011;8182;55.648;13.208;2023-12-20T08:51:30;3.73;;;1.77;;
16153;SDS011;8182;55.648;13.208;2023-12-20T08:53:56;4.47;;;1.47;;
16153;SDS011;8182;55.648;13.208;2023-12-20T08:56:24;7.07;;;1.63;;
16153;SDS011;8182;55.648;13.208;2023-12-20T08:58:52;2.63;;;1.30;;
16153;SDS011;8182;55.648;13.208;2023-12-20T09:01:20;6.90;;;1.70;;
16153;SDS011;8182;55.648;13.208;2023-12-20T09:03:48;5.27;;;1.70;;
16153;SDS011;8182;55.648;13.208;2023-12-20T09:06:15;2.73;;;1.30;;
16153;SDS011;8182;55.648;13.208;2023-12-20T09:08:43;5.97;;;1.57;;
16153;SDS011;8182;55.648;13.208;2023-12-20T09:11:11;4.20;;;1.20;;
16153;SDS011;8182;55.648;13.208;2023-12-20T09:13:39;3.83;;;1.40;;
16153;SDS011;8182;55.648;13.208;2023-12-20T09:16:08;2.87;;;1.37;;
16153;SDS011;8182;55.648;13.208;2023-12-20T09:18:38;5.53;;;1.40;;
16153;SDS011;8182;55.648;13.208;2023-12-20T09:21:05;3.77;;;1.63;;
16153;SDS011;8182;55.648;13.208;2023-12-20T09:23:33;3.17;;;1.27;;
16153;SDS011;8182;55.648;13.208;2023-12-20T09:26:01;3.83;;;1.43;;
16153;SDS011;8182;55.648;13.208;2023-12-20T09:28:29;5.37;;;1.63;;
16153;SDS011;8182;55.648;13.208;2023-12-20T09:30:57;7.27;;;1.53;;
16153;SDS011;8182;55.648;13.208;2023-12-20T09:33:26;3.63;;;1.60;;
16153;SDS011;8182;55.648;13.208;2023-12-20T09:35:53;5.10;;;1.70;;
16153;SDS011;8182;55.648;13.208;2023-12-20T09:38:21;6.13;;;2.10;;
16153;SDS011;8182;55.648;13.208;2023-12-20T09:40:49;4.47;;;1.80;;
16153;SDS011;8182;55.648;13.208;2023-12-20T09:43:17;4.00;;;1.50;;
16153;SDS011;8182;55.648;13.208;2023-12-20T09:45:47;6.90;;;1.93;;
16153;SDS011;8182;55.648;13.208;2023-12-20T09:48:16;5.67;;;1.70;;
16153;SDS011;8182;55.648;13.208;2023-12-20T09:50:46;8.27;;;1.80;;
16153;SDS011;8182;55.648;13.208;2023-12-20T09:53:15;5.13;;;1.70;;
16153;SDS011;8182;55.648;13.208;2023-12-20T09:55:44;10.03;;;1.90;;
16153;SDS011;8182;55.648;13.208;2023-12-20T09:58:11;5.37;;;1.60;;
16153;SDS011;8182;55.648;13.208;2023-12-20T10:00:42;6.10;;;1.90;;
16153;SDS011;8182;55.648;13.208;2023-12-20T10:03:09;5.10;;;1.87;;
16153;SDS011;8182;55.648;13.208;2023-12-20T10:05:39;6.03;;;1.93;;
16153;SDS011;8182;55.648;13.208;2023-12-20T10:08:13;4.37;;;1.70;;
16153;SDS011;8182;55.648;13.208;2023-12-20T10:10:40;5.80;;;1.83;;
16153;SDS011;8182;55.648;13.208;2023-12-20T10:13:08;7.77;;;2.03;;
16153;SDS011;8182;55.648;13.208;2023-12-20T10:15:37;6.03;;;2.00;;
16153;SDS011;8182;55.648;13.208;2023-12-20T10:18:06;8.67;;;2.37;;
16153;SDS011;8182;55.648;13.208;2023-12-20T10:20:35;8.13;;;2.40;;
16153;SDS011;8182;55.648;13.208;2023-12-20T10:23:03;7.27;;;2.13;;
16153;SDS011;8182;55.648;13.208;2023-12-20T10:25:33;7.03;;;2.13;;
16153;SDS011;8182;55.648;13.208;2023-12-20T10:28:08;6.87;;;1.90;;
16153;SDS011;8182;55.648;13.208;2023-12-20T10:30:37;9.27;;;1.90;;
16153;SDS011;8182;55.648;13.208;2023-12-20T10:33:06;6.93;;;2.10;;
16153;SDS011;8182;55.648;13.208;2023-12-20T10:35:34;11.93;;;2.67;;
16153;SDS011;8182;55.648;13.208;2023-12-20T10:38:02;12.70;;;2.13;;
16153;SDS011;8182;55.648;13.208;2023-12-20T10:40:36;8.57;;;2.27;;
16153;SDS011;8182;55.648;13.208;2023-12-20T10:43:03;8.70;;;2.23;;
16153;SDS011;8182;55.648;13.208;2023-12-20T10:45:31;7.93;;;2.33;;
16153;SDS011;8182;55.648;13.208;2023-12-20T10:47:59;11.50;;;2.60;;
16153;SDS011;8182;55.648;13.208;2023-12-20T10:50:28;8.53;;;2.33;;
16153;SDS011;8182;55.648;13.208;2023-12-20T10:52:57;9.90;;;2.37;;
16153;SDS011;8182;55.648;13.208;2023-12-20T10:55:25;10.37;;;2.20;;
16153;SDS011;8182;55.648;13.208;2023-12-20T10:57:54;10.73;;;2.93;;
16153;SDS011;8182;55.648;13.208;2023-12-20T11:00:24;11.57;;;2.60;;
16153;SDS011;8182;55.648;13.208;2023-12-20T11:02:52;10.53;;;2.80;;
16153;SDS011;8182;55.648;13.208;2023-12-20T11:05:24;9.37;;;2.77;;
16153;SDS011;8182;55.648;13.208;2023-12-20T11:08:01;11.40;;;2.93;;
16153;SDS011;8182;55.648;13.208;2023-12-20T11:10:35;8.63;;;2.60;;
16153;SDS011;8182;55.648;13.208;2023-12-20T11:13:08;11.97;;;3.03;;
16153;SDS011;8182;55.648;13.208;2023-12-20T11:15:43;11.87;;;3.37;;
16153;SDS011;8182;55.648;13.208;2023-12-20T11:18:11;12.33;;;2.80;;
16153;SDS011;8182;55.648;13.208;2023-12-20T11:20:38;14.50;;;3.37;;
16153;SDS011;8182;55.648;13.208;2023-12-20T11:23:08;14.53;;;3.03;;
16153;SDS011;8182;55.648;13.208;2023-12-20T11:25:46;10.57;;;3.00;;
16153;SDS011;8182;55.648;13.208;2023-12-20T11:28:17;9.50;;;2.37;;
16153;SDS011;8182;55.648;13.208;2023-12-20T11:30:50;13.30;;;2.63;;
16153;SDS011;8182;55.648;13.208;2023-12-20T11:33:20;11.47;;;3.33;;
16153;SDS011;8182;55.648;13.208;2023-12-20T11:35:48;9.47;;;2.80;;
16153;SDS011;8182;55.648;13.208;2023-12-20T11:38:15;15.03;;;2.97;;
16153;SDS011;8182;55.648;13.208;2023-12-20T11:40:44;11.40;;;2.90;;
16153;SDS011;8182;55.648;13.208;2023-12-20T11:43:30;12.73;;;3.20;;
16153;SDS011;8182;55.648;13.208;2023-12-20T11:46:09;14.87;;;3.03;;
16153;SDS011;8182;55.648;13.208;2023-12-20T11:48:37;7.70;;;2.30;;
16153;SDS011;8182;55.648;13.208;2023-12-20T11:51:09;5.10;;;2.27;;
16153;SDS011;8182;55.648;13.208;2023-12-20T11:53:37;6.90;;;2.50;;
16153;SDS011;8182;55.648;13.208;2023-12-20T11:56:05;12.97;;;2.37;;
16153;SDS011;8182;55.648;13.208;2023-12-20T11:58:35;7.93;;;2.27;;
16153;SDS011;8182;55.648;13.208;2023-12-20T12:01:02;5.67;;;2.10;;
16153;SDS011;8182;55.648;13.208;2023-12-20T12:03:32;9.10;;;2.73;;
16153;SDS011;8182;55.648;13.208;2023-12-20T12:06:00;7.17;;;2.13;;
16153;SDS011;8182;55.648;13.208;2023-12-20T12:08:29;5.10;;;2.00;;
16153;SDS011;8182;55.648;13.208;2023-12-20T12:10:57;5.17;;;1.90;;
16153;SDS011;8182;55.648;13.208;2023-12-20T12:13:24;4.17;;;1.70;;
16153;SDS011;8182;55.648;13.208;2023-12-20T12:15:54;7.30;;;1.90;;
16153;SDS011;8182;55.648;13.208;2023-12-20T12:18:31;5.10;;;1.80;;
16153;SDS011;8182;55.648;13.208;2023-12-20T12:21:00;3.37;;;1.60;;
16153;SDS011;8182;55.648;13.208;2023-12-20T12:23:27;3.33;;;1.90;;
16153;SDS011;8182;55.648;13.208;2023-12-20T12:25:56;6.57;;;2.03;;
16153;SDS011;8182;55.648;13.208;2023-12-20T12:28:25;4.40;;;1.70;;
16153;SDS011;8182;55.648;13.208;2023-12-20T12:30:58;7.87;;;1.90;;
16153;SDS011;8182;55.648;13.208;2023-12-20T12:33:25;4.80;;;1.90;;
16153;SDS011;8182;55.648;13.208;2023-12-20T12:35:54;4.90;;;2.00;;
16153;SDS011;8182;55.648;13.208;2023-12-20T12:38:21;7.73;;;2.47;;
16153;SDS011;8182;55.648;13.208;2023-12-20T12:40:49;8.83;;;2.43;;
16153;SDS011;8182;55.648;13.208;2023-12-20T12:43:18;4.63;;;2.17;;
16153;SDS011;8182;55.648;13.208;2023-12-20T12:45:47;4.53;;;2.00;;
16153;SDS011;8182;55.648;13.208;2023-12-20T12:48:17;8.77;;;2.43;;
16153;SDS011;8182;55.648;13.208;2023-12-20T12:50:45;6.93;;;2.00;;
16153;SDS011;8182;55.648;13.208;2023-12-20T12:53:12;4.90;;;2.00;;
16153;SDS011;8182;55.648;13.208;2023-12-20T12:55:40;6.40;;;2.03;;
16153;SDS011;8182;55.648;13.208;2023-12-20T12:58:07;6.77;;;2.17;;
16153;SDS011;8182;55.648;13.208;2023-12-20T13:00:35;5.03;;;1.80;;
16153;SDS011;8182;55.648;13.208;2023-12-20T13:03:02;5.97;;;1.77;;
16153;SDS011;8182;55.648;13.208;2023-12-20T13:05:32;5.77;;;1.83;;
16153;SDS011;8182;55.648;13.208;2023-12-20T13:07:59;4.67;;;2.07;;
16153;SDS011;8182;55.648;13.208;2023-12-20T13:10:29;7.20;;;2.30;;
16153;SDS011;8182;55.648;13.208;2023-12-20T13:12:56;5.67;;;1.77;;
16153;SDS011;8182;55.648;13.208;2023-12-20T13:15:23;7.43;;;1.60;;
16153;SDS011;8182;55.648;13.208;2023-12-20T13:17:51;8.20;;;1.90;;
16153;SDS011;8182;55.648;13.208;2023-12-20T13:20:19;4.77;;;1.70;;
16153;SDS011;8182;55.648;13.208;2023-12-20T13:22:48;5.53;;;1.93;;
16153;SDS011;8182;55.648;13.208;2023-12-20T13:25:16;6.93;;;1.57;;
16153;SDS011;8182;55.648;13.208;2023-12-20T13:27:43;5.83;;;1.90;;
16153;SDS011;8182;55.648;13.208;2023-12-20T13:30:13;4.27;;;1.30;;
16153;SDS011;8182;55.648;13.208;2023-12-20T13:32:42;2.77;;;1.30;;
16153;SDS011;8182;55.648;13.208;2023-12-20T13:35:10;3.80;;;1.60;;
16153;SDS011;8182;55.648;13.208;2023-12-20T13:37:37;5.40;;;1.40;;
16153;SDS011;8182;55.648;13.208;2023-12-20T13:40:08;3.37;;;1.50;;
16153;SDS011;8182;55.648;13.208;2023-12-20T13:42:36;3.73;;;1.60;;
16153;SDS011;8182;55.648;13.208;2023-12-20T13:45:04;4.90;;;1.47;;
16153;SDS011;8182;55.648;13.208;2023-12-20T13:47:33;1.70;;;1.20;;
16153;SDS011;8182;55.648;13.208;2023-12-20T13:50:01;3.07;;;1.43;;
16153;SDS011;8182;55.648;13.208;2023-12-20T13:52:30;4.67;;;1.40;;
16153;SDS011;8182;55.648;13.208;2023-12-20T13:54:57;2.73;;;1.33;;
16153;SDS011;8182;55.648;13.208;2023-12-20T13:57:26;5.17;;;1.43;;
16153;SDS011;8182;55.648;13.208;2023-12-20T13:59:54;4.73;;;1.70;;
16153;SDS011;8182;55.648;13.208;2023-12-20T14:02:22;4.83;;;1.80;;
16153;SDS011;8182;55.648;13.208;2023-12-20T14:04:49;3.77;;;1.63;;
16153;SDS011;8182;55.648;13.208;2023-12-20T14:07:16;7.47;;;2.00;;
16153;SDS011;8182;55.648;13.208;2023-12-20T14:09:54;6.23;;;1.50;;
16153;SDS011;8182;55.648;13.208;2023-12-20T14:12:21;3.53;;;1.83;;
16153;SDS011;8182;55.648;13.208;2023-12-20T14:14:51;3.60;;;1.40;;
16153;SDS011;8182;55.648;13.208;2023-12-20T14:17:20;5.73;;;2.00;;
16153;SDS011;8182;55.648;13.208;2023-12-20T14:19:48;7.73;;;2.03;;
16153;SDS011;8182;55.648;13.208;2023-12-20T14:22:18;4.97;;;2.23;;
16153;SDS011;8182;55.648;13.208;2023-12-20T14:24:46;9.70;;;2.30;;
16153;SDS011;8182;55.648;13.208;2023-12-20T14:27:13;5.77;;;2.80;;
16153;SDS011;8182;55.648;13.208;2023-12-20T14:29:41;7.27;;;2.37;;
16153;SDS011;8182;55.648;13.208;2023-12-20T14:32:10;8.57;;;2.43;;
16153;SDS011;8182;55.648;13.208;2023-12-20T14:34:40;4.87;;;2.20;;
16153;SDS011;8182;55.648;13.208;2023-12-20T14:37:07;8.43;;;2.57;;
16153;SDS011;8182;55.648;13.208;2023-12-20T14:39:37;6.50;;;2.90;;
16153;SDS011;8182;55.648;13.208;2023-12-20T14:42:06;10.95;;;3.10;;
16153;SDS011;8182;55.648;13.208;2023-12-20T14:44:37;6.97;;;3.00;;
16153;SDS011;8182;55.648;13.208;2023-12-20T14:47:04;6.83;;;3.00;;
16153;SDS011;8182;55.648;13.208;2023-12-20T14:49:33;6.33;;;3.03;;